To NAV CANADA Home Page Login to a new session Search on AWWS site Feedback and Comments Disclaimer Vers la page française équivalente Tips FAQ What's new on the site To the Forecasts and Observations / NOTAM section To "File a Flight Plan" website Publications and other links Update of the User's profile FIC Telephone Numbers My Weather Data Folder Route Weather Data Regional Weather Data Local Weather Data To the Forecasts and Observations / NOTAM section
Request Generated 08/26/2016 at 04:53:20 UTC . Weather information available at that time is displayed.

METAR/TAF

LA RONGE (BARBER FIELD)/SK    

SPECI CYVC 260448Z 24013KT 210V290 15SM -TSRA SCT024CB BKN110 15/12
A2995 RMK CB4AC3 SLP148 DENSITY ALT 1500FT=
METAR CYVC 260400Z 35005KT 15SM TS SCT038CB BKN110 17/13 A2993 RMK
CB3AC4 LTG SE-SW SLP143 DENSITY ALT 1700FT=
METAR CYVC 260300Z 25003KT 15SM TS FEW030CB SCT080 BKN150 16/13 A2993
RMK CB2AC2AC3 LTG NE-SE SLP145 DENSITY ALT 1600FT=
SPECI CYVC 260247Z 23004KT 15SM TS FEW030CB BKN080 BKN150 16/13 A2994
RMK CB2AC3AC2 LTG NE-SE SLP148 DENSITY ALT 1600FT=
METAR CYVC 260200Z 20005KT 15SM BKN050CB BKN220 17/13 A2994 RMK
CB5CI2 SLP148 DENSITY ALT 1700FT=

TAF AMD CYVC 260412Z 2604/2613 35005KT P6SM SCT040 BKN100 BKN250
TEMPO 2604/2606 VRB15G25KT 4SM TSRA BKN040CB
FM260600 35008KT P6SM BKN040 BKN080 TEMPO 2606/2611 4SM -SHRA BR
BKN020 BKN040
FM261100 01008KT P6SM FEW050 SCT140
RMK NXT FCST BY 260700Z=
Your time UTC time
Weather data provided by Environment Canada and NAV CANADA